createdAt,value
2023-04-16T00:00:49.154Z,8.27
2023-04-16T00:03:56.645Z,8.27
2023-04-16T00:06:24.689Z,8.30
2023-04-16T00:08:54.045Z,8.26
2023-04-16T00:11:25.450Z,8.30
2023-04-16T00:13:53.413Z,8.33
2023-04-16T00:16:24.090Z,8.29
2023-04-16T00:18:52.026Z,8.36
2023-04-16T00:21:20.070Z,8.34
2023-04-16T00:23:47.908Z,8.25
2023-04-16T00:26:17.170Z,8.34
2023-04-16T00:28:46.546Z,8.27
2023-04-16T00:31:14.479Z,8.29
2023-04-16T00:33:43.875Z,8.23
2023-04-16T00:42:43.560Z,8.17
2023-04-16T00:45:12.767Z,8.16
2023-04-16T00:47:40.799Z,8.11
2023-04-16T00:50:19.221Z,8.15
2023-04-16T00:53:09.010Z,8.07
2023-04-16T00:55:38.367Z,8.14
2023-04-16T00:58:08.299Z,8.20
2023-04-16T01:00:36.377Z,8.16
2023-04-16T01:03:06.130Z,8.21
2023-04-16T01:05:34.966Z,8.19
2023-04-16T01:08:13.051Z,8.11
2023-04-16T01:11:11.344Z,8.03
2023-04-16T01:22:32.528Z,8.14
2023-04-16T01:25:00.881Z,8.20
2023-04-16T01:27:31.422Z,8.16
2023-04-16T01:29:59.540Z,8.22
2023-04-16T01:32:33.513Z,8.26
2023-04-16T01:35:03.471Z,8.24
2023-04-16T01:37:36.039Z,8.25
2023-04-16T01:40:04.192Z,8.20
2023-04-16T01:42:32.286Z,8.19
2023-04-16T01:45:02.342Z,8.18
2023-04-16T01:47:31.345Z,8.19
2023-04-16T01:50:04.820Z,8.17
2023-04-16T01:52:34.170Z,8.19
2023-04-16T01:55:02.114Z,8.17
2023-04-16T01:57:30.405Z,8.20
2023-04-16T01:59:59.538Z,8.13
2023-04-16T02:02:29.220Z,8.09
2023-04-16T02:05:00.012Z,7.90
2023-04-16T02:07:29.231Z,7.83
2023-04-16T02:15:38.759Z,7.81
2023-04-16T02:21:48.587Z,7.87
2023-04-16T02:24:40.954Z,7.80
2023-04-16T02:27:26.470Z,7.89
2023-04-16T02:29:54.434Z,7.90
2023-04-16T02:32:22.390Z,7.96
2023-04-16T02:37:53.895Z,7.94
2023-04-16T02:40:21.850Z,7.94
2023-04-16T02:43:33.833Z,7.94
2023-04-16T02:46:03.164Z,7.91
2023-04-16T02:48:35.364Z,7.91
2023-04-16T02:51:03.420Z,7.95
2023-04-16T02:53:47.968Z,7.95
2023-04-16T02:56:15.968Z,7.94
2023-04-16T02:58:43.915Z,7.92
2023-04-16T03:01:14.083Z,7.88
2023-04-16T03:03:42.063Z,7.89
2023-04-16T03:06:10.059Z,7.89
2023-04-16T03:08:38.158Z,7.86
2023-04-16T03:17:17.497Z,7.91
2023-04-16T03:19:45.675Z,7.93
2023-04-16T03:22:13.732Z,7.87
2023-04-16T03:34:02.908Z,7.87
2023-04-16T03:37:06.177Z,7.80
2023-04-16T03:39:34.506Z,7.71
2023-04-16T03:42:08.120Z,7.77
2023-04-16T03:44:38.050Z,7.77
2023-04-16T03:47:06.188Z,7.78
2023-04-16T03:49:35.852Z,7.64
2023-04-16T03:52:08.418Z,7.77
2023-04-16T03:54:42.780Z,7.69
2023-04-16T03:57:10.643Z,7.63
2023-04-16T03:59:38.790Z,7.66
2023-04-16T04:02:06.836Z,7.66
2023-04-16T04:04:36.283Z,7.67
2023-04-16T04:07:04.319Z,7.63
2023-04-16T04:09:32.404Z,7.65
2023-04-16T04:12:00.372Z,7.63
2023-04-16T04:14:28.995Z,7.63
2023-04-16T04:16:56.749Z,7.64
2023-04-16T04:19:24.896Z,7.60
2023-04-16T04:21:54.191Z,7.72
2023-04-16T04:24:22.223Z,7.61
2023-04-16T04:26:50.123Z,7.65
2023-04-16T04:29:18.336Z,7.61
2023-04-16T04:34:44.077Z,7.55
2023-04-16T04:44:17.792Z,7.69
2023-04-16T04:46:46.392Z,7.73
2023-04-16T04:49:14.308Z,7.65
2023-04-16T04:51:42.313Z,7.67
2023-04-16T04:57:08.326Z,7.66
2023-04-16T04:59:39.835Z,7.70
2023-04-16T05:02:07.816Z,7.68
2023-04-16T05:04:35.841Z,7.72
2023-04-16T05:07:03.786Z,7.74
2023-04-16T05:09:31.864Z,7.83
2023-04-16T05:12:01.378Z,7.82
2023-04-16T05:14:30.333Z,7.79
2023-04-16T05:17:02.432Z,7.84
2023-04-16T05:19:31.545Z,7.83
2023-04-16T05:22:00.090Z,7.92
2023-04-16T05:24:28.339Z,7.88
2023-04-16T05:27:04.822Z,7.83
2023-04-16T05:29:32.754Z,7.80
2023-04-16T05:32:02.315Z,7.87
2023-04-16T05:34:31.508Z,7.74
2023-04-16T05:37:01.937Z,7.91
2023-04-16T05:39:30.468Z,7.96
2023-04-16T05:41:58.598Z,7.93
2023-04-16T05:44:27.071Z,7.91
2023-04-16T05:46:55.479Z,7.88
2023-04-16T05:49:24.935Z,7.94
2023-04-16T05:51:55.949Z,7.97
2023-04-16T05:54:24.368Z,7.85
2023-04-16T05:56:54.416Z,7.77
2023-04-16T05:59:22.334Z,7.74
2023-04-16T06:01:50.404Z,7.78
2023-04-16T06:04:20.605Z,7.79
2023-04-16T06:06:49.910Z,7.84
2023-04-16T06:09:18.981Z,7.83
2023-04-16T06:11:47.228Z,7.74
2023-04-16T06:14:15.349Z,7.73
2023-04-16T06:16:43.271Z,7.96
2023-04-16T06:19:11.326Z,8.02
2023-04-16T06:21:39.744Z,8.16
2023-04-16T06:24:09.181Z,8.01
2023-04-16T06:26:37.478Z,8.07
2023-04-16T06:29:05.575Z,8.15
2023-04-16T06:31:34.750Z,8.24
2023-04-16T06:34:02.670Z,8.13
2023-04-16T06:36:31.317Z,8.13
2023-04-16T06:38:59.282Z,8.27
2023-04-16T06:41:28.772Z,8.18
2023-04-16T06:43:56.989Z,8.15
2023-04-16T06:46:24.905Z,8.27
2023-04-16T06:48:53.039Z,8.23
2023-04-16T06:51:21.174Z,8.35
2023-04-16T06:53:50.023Z,8.48
2023-04-16T06:56:17.996Z,8.51
2023-04-16T06:58:47.478Z,8.52
2023-04-16T07:01:15.765Z,8.71
2023-04-16T07:03:44.133Z,8.79
2023-04-16T07:06:12.693Z,8.77
2023-04-16T07:08:40.638Z,8.96
2023-04-16T07:11:08.660Z,9.23
2023-04-16T07:13:36.670Z,9.32
2023-04-16T07:16:06.567Z,9.50
2023-04-16T07:18:34.510Z,9.34
2023-04-16T07:21:02.391Z,9.33
2023-04-16T07:23:30.425Z,9.41
2023-04-16T07:25:59.891Z,9.40
2023-04-16T07:28:27.771Z,9.22
2023-04-16T07:30:55.947Z,9.29
2023-04-16T07:33:26.046Z,9.53
2023-04-16T07:35:55.125Z,9.58
2023-04-16T07:38:23.103Z,9.39
2023-04-16T07:40:52.234Z,9.13
2023-04-16T07:43:21.272Z,9.38
2023-04-16T07:45:49.198Z,9.43
2023-04-16T07:48:17.140Z,9.63
2023-04-16T07:50:54.623Z,9.55
2023-04-16T07:53:28.739Z,9.81
2023-04-16T07:55:57.184Z,9.95
2023-04-16T07:58:35.695Z,9.96
2023-04-16T08:01:04.038Z,10.28
2023-04-16T08:03:34.240Z,10.09
2023-04-16T08:06:03.792Z,10.08
2023-04-16T08:08:31.921Z,10.23
2023-04-16T08:11:00.797Z,9.94
2023-04-16T08:13:28.793Z,10.05
2023-04-16T08:15:56.803Z,10.03
2023-04-16T08:18:25.243Z,10.06
2023-04-16T08:20:53.398Z,10.29
2023-04-16T08:23:23.909Z,10.70
2023-04-16T08:25:53.131Z,10.55
2023-04-16T08:28:22.894Z,10.55
2023-04-16T08:30:51.119Z,10.32
2023-04-16T08:33:21.177Z,10.51
2023-04-16T08:35:49.137Z,10.78
2023-04-16T08:38:16.973Z,10.78
2023-04-16T08:40:58.018Z,10.93
2023-04-16T08:43:27.651Z,11.05
2023-04-16T08:45:57.804Z,11.43
2023-04-16T08:48:26.444Z,11.50
2023-04-16T08:50:55.647Z,11.96
2023-04-16T08:53:31.573Z,12.24
2023-04-16T08:56:04.889Z,12.71
2023-04-16T08:58:35.598Z,13.19
2023-04-16T09:01:04.629Z,13.43
2023-04-16T09:03:36.169Z,13.12
2023-04-16T09:06:05.838Z,13.32
2023-04-16T09:08:35.826Z,13.52
2023-04-16T09:11:09.338Z,14.11
2023-04-16T09:13:38.917Z,13.69
2023-04-16T09:16:08.580Z,14.12
2023-04-16T09:18:36.517Z,14.28
2023-04-16T09:21:05.703Z,14.24
2023-04-16T09:23:34.206Z,14.27
2023-04-16T09:26:02.476Z,14.21
2023-04-16T09:28:42.201Z,13.88
2023-04-16T09:31:12.453Z,14.27
2023-04-16T09:33:40.874Z,14.11
2023-04-16T09:36:08.802Z,15.00
2023-04-16T09:38:50.790Z,14.54
2023-04-16T09:41:19.207Z,14.74
2023-04-16T09:43:56.716Z,16.19
2023-04-16T09:46:25.717Z,15.05
2023-04-16T09:48:53.692Z,15.21
2023-04-16T09:51:21.802Z,15.10
2023-04-16T09:53:53.817Z,14.92
2023-04-16T09:56:26.194Z,15.59
2023-04-16T09:59:04.472Z,15.99
2023-04-16T10:01:39.238Z,16.45
2023-04-16T10:04:43.884Z,15.42
2023-04-16T10:07:45.722Z,15.79
2023-04-16T10:10:27.215Z,15.92
2023-04-16T10:12:58.902Z,15.81
2023-04-16T10:15:28.870Z,15.76
2023-04-16T10:18:00.322Z,15.13
2023-04-16T10:20:30.203Z,16.38
2023-04-16T10:22:58.728Z,16.72
2023-04-16T10:25:27.622Z,16.31
2023-04-16T10:27:57.926Z,16.79
2023-04-16T10:30:28.803Z,16.76
2023-04-16T10:33:00.272Z,17.71
2023-04-16T10:35:28.842Z,17.29
2023-04-16T10:37:58.653Z,16.89
2023-04-16T10:40:29.457Z,17.29
2023-04-16T10:42:59.525Z,17.55
2023-04-16T10:45:39.169Z,16.96
2023-04-16T10:48:10.060Z,16.79
2023-04-16T10:50:39.720Z,17.22
2023-04-16T10:53:22.112Z,16.53
2023-04-16T10:56:15.497Z,16.33
2023-04-16T10:58:44.015Z,16.51
2023-04-16T11:01:16.948Z,16.89
2023-04-16T11:03:48.169Z,16.96
2023-04-16T11:06:18.665Z,17.40
2023-04-16T11:08:54.507Z,18.31
2023-04-16T11:11:24.629Z,17.73
2023-04-16T11:13:58.474Z,17.63
2023-04-16T11:16:30.501Z,16.60
2023-04-16T11:19:01.350Z,17.39
2023-04-16T11:21:29.304Z,17.48
2023-04-16T11:23:59.230Z,17.05
2023-04-16T11:26:29.186Z,17.22
2023-04-16T11:28:58.007Z,16.41
2023-04-16T11:31:30.501Z,15.83
2023-04-16T11:34:01.056Z,15.83
2023-04-16T11:36:29.289Z,16.03
2023-04-16T11:39:04.472Z,15.58
2023-04-16T11:41:32.622Z,16.71
2023-04-16T11:44:01.404Z,16.14
2023-04-16T11:46:41.387Z,15.62
2023-04-16T11:49:09.878Z,17.10
2023-04-16T11:51:41.630Z,16.08
2023-04-16T11:54:12.042Z,16.64
2023-04-16T11:56:46.451Z,16.43
2023-04-16T11:59:22.895Z,15.93
2023-04-16T12:01:56.661Z,16.34
2023-04-16T12:04:26.817Z,16.62
2023-04-16T12:07:13.468Z,17.45
2023-04-16T12:09:43.088Z,17.26
2023-04-16T12:12:29.691Z,17.08
2023-04-16T12:15:00.084Z,17.60
2023-04-16T12:17:29.481Z,17.98
2023-04-16T12:19:59.897Z,17.57
2023-04-16T12:22:30.383Z,16.95
2023-04-16T12:25:02.909Z,17.45
2023-04-16T12:27:45.568Z,16.39
2023-04-16T12:30:16.532Z,16.48
2023-04-16T12:32:47.941Z,17.22
2023-04-16T12:35:31.048Z,17.05
2023-04-16T12:37:58.885Z,16.75
2023-04-16T12:40:28.391Z,16.41
2023-04-16T12:42:59.018Z,16.02
2023-04-16T12:45:28.342Z,16.01
2023-04-16T12:47:58.807Z,16.28
2023-04-16T12:50:28.480Z,15.74
2023-04-16T12:52:58.056Z,16.56
2023-04-16T12:55:26.456Z,16.21
2023-04-16T12:57:54.328Z,16.50
2023-04-16T13:00:23.128Z,16.03
2023-04-16T13:02:51.198Z,15.95
2023-04-16T13:05:20.763Z,16.32
2023-04-16T13:07:49.745Z,15.79
2023-04-16T13:10:17.846Z,16.90
2023-04-16T13:12:47.556Z,17.60
2023-04-16T13:15:15.890Z,15.34
2023-04-16T13:17:50.367Z,15.89
2023-04-16T13:20:24.409Z,15.25
2023-04-16T13:22:52.962Z,15.80
2023-04-16T13:25:22.972Z,15.55
2023-04-16T13:27:53.231Z,14.94
2023-04-16T13:30:21.209Z,15.12
2023-04-16T13:32:49.449Z,14.67
2023-04-16T13:35:18.124Z,15.22
2023-04-16T13:37:47.680Z,15.15
2023-04-16T13:40:15.942Z,14.94
2023-04-16T13:45:29.370Z,15.05
2023-04-16T13:47:57.637Z,14.86
2023-04-16T13:50:25.801Z,15.25
2023-04-16T13:52:55.622Z,15.57
2023-04-16T13:55:23.795Z,15.50
2023-04-16T13:57:57.694Z,15.43
2023-04-16T14:00:27.788Z,15.46
2023-04-16T14:02:57.126Z,15.45
2023-04-16T14:05:27.141Z,14.76
2023-04-16T14:07:56.926Z,14.83
2023-04-16T14:10:25.680Z,15.04
2023-04-16T14:12:54.334Z,14.92
2023-04-16T14:15:23.582Z,15.55
2023-04-16T14:17:52.947Z,15.46
2023-04-16T14:20:24.330Z,15.76
2023-04-16T14:22:52.569Z,15.37
2023-04-16T14:25:22.239Z,15.74
2023-04-16T14:27:50.461Z,14.71
2023-04-16T14:30:18.868Z,14.97
2023-04-16T14:32:46.953Z,15.24
2023-04-16T14:35:18.100Z,15.36
2023-04-16T14:37:46.609Z,14.64
2023-04-16T14:40:14.995Z,14.81
2023-04-16T14:42:44.657Z,15.13
2023-04-16T14:45:13.132Z,15.25
2023-04-16T14:47:46.069Z,15.87
2023-04-16T14:50:14.804Z,16.01
2023-04-16T14:52:44.377Z,16.95
2023-04-16T14:55:12.724Z,16.63
2023-04-16T14:57:41.605Z,17.07
2023-04-16T15:00:13.695Z,17.62
2023-04-16T15:02:43.057Z,16.74
2023-04-16T15:05:17.447Z,17.08
2023-04-16T15:07:45.452Z,17.94
2023-04-16T15:10:13.747Z,18.16
2023-04-16T15:12:41.917Z,18.78
2023-04-16T15:15:12.270Z,19.27
2023-04-16T15:17:40.661Z,19.50
2023-04-16T15:20:11.028Z,18.20
2023-04-16T15:22:39.353Z,18.57
2023-04-16T15:25:10.359Z,18.41
2023-04-16T15:27:39.165Z,17.66
2023-04-16T15:30:08.730Z,18.21
2023-04-16T15:32:38.594Z,18.72
2023-04-16T15:35:11.695Z,18.27
2023-04-16T15:37:39.791Z,19.48
2023-04-16T15:40:10.839Z,17.78
2023-04-16T15:42:38.863Z,18.27
2023-04-16T15:45:08.767Z,17.46
2023-04-16T15:47:53.649Z,17.95
2023-04-16T15:50:29.275Z,17.39
2023-04-16T15:52:57.553Z,16.82
2023-04-16T15:55:26.299Z,16.11
2023-04-16T15:57:56.698Z,16.86
2023-04-16T16:00:34.762Z,17.48
2023-04-16T16:03:04.449Z,16.88
2023-04-16T16:05:33.895Z,16.37
2023-04-16T16:08:04.846Z,15.88
2023-04-16T16:10:33.540Z,15.28
2023-04-16T16:13:05.355Z,14.99
2023-04-16T16:15:33.815Z,15.55
2023-04-16T16:18:08.838Z,14.86
2023-04-16T16:20:40.598Z,14.65
2023-04-16T16:23:14.914Z,13.98
2023-04-16T16:26:07.848Z,14.27
2023-04-16T16:28:37.629Z,14.70
2023-04-16T16:31:07.366Z,14.03
2023-04-16T16:33:42.635Z,14.04
2023-04-16T16:36:12.368Z,13.87
2023-04-16T16:38:41.142Z,14.01
2023-04-16T16:41:10.408Z,13.86
2023-04-16T16:43:39.738Z,13.46
2023-04-16T16:46:13.705Z,13.06
2023-04-16T16:48:44.111Z,12.47
2023-04-16T16:51:12.545Z,13.19
2023-04-16T16:53:44.256Z,12.50
2023-04-16T16:56:12.329Z,11.57
2023-04-16T16:58:40.458Z,11.63
2023-04-16T17:01:10.568Z,11.46
2023-04-16T17:03:39.845Z,11.41
2023-04-16T17:06:09.466Z,11.16
2023-04-16T17:08:37.588Z,10.97
2023-04-16T17:11:08.552Z,10.73
2023-04-16T17:13:48.979Z,10.56
2023-04-16T17:16:17.761Z,10.43
2023-04-16T17:18:45.961Z,10.28
2023-04-16T17:21:16.570Z,10.18
2023-04-16T17:23:46.699Z,10.07
2023-04-16T17:26:15.219Z,10.11
2023-04-16T17:28:46.638Z,9.85
2023-04-16T17:31:15.079Z,9.81
2023-04-16T17:33:43.465Z,9.60
2023-04-16T17:36:28.837Z,9.74
2023-04-16T17:39:02.504Z,9.76
2023-04-16T17:41:30.591Z,9.56
2023-04-16T17:44:01.190Z,9.47
2023-04-16T17:46:29.224Z,9.42
2023-04-16T17:48:58.033Z,9.35
2023-04-16T17:51:27.958Z,9.22
2023-04-16T17:53:56.355Z,9.23
2023-04-16T17:56:25.842Z,9.26
2023-04-16T17:58:54.019Z,9.02
2023-04-16T18:01:23.179Z,9.00
2023-04-16T18:03:53.100Z,8.91
2023-04-16T18:06:21.177Z,8.76
2023-04-16T18:08:49.445Z,8.70
2023-04-16T18:12:05.712Z,8.72
2023-04-16T18:14:40.659Z,8.62
2023-04-16T18:17:08.791Z,8.51
2023-04-16T18:19:39.444Z,8.67
2023-04-16T18:22:10.574Z,8.59
2023-04-16T18:24:38.391Z,8.49
2023-04-16T18:27:10.584Z,8.51
2023-04-16T18:32:22.522Z,8.46
2023-04-16T18:34:51.670Z,8.52
2023-04-16T18:37:19.845Z,8.34
2023-04-16T18:39:47.804Z,8.17
2023-04-16T18:42:17.268Z,8.20
2023-04-16T18:44:45.353Z,8.26
2023-04-16T18:47:15.110Z,8.14
2023-04-16T18:49:43.178Z,8.12
2023-04-16T18:52:11.244Z,8.18
2023-04-16T18:54:40.866Z,7.97
2023-04-16T18:57:10.430Z,8.04
2023-04-16T18:59:40.733Z,8.03
2023-04-16T19:02:10.091Z,7.99
2023-04-16T19:04:39.502Z,8.00
2023-04-16T19:07:07.459Z,8.08
2023-04-16T19:09:35.708Z,8.02
2023-04-16T19:12:05.822Z,8.03
2023-04-16T19:14:35.082Z,8.07
2023-04-16T19:17:04.478Z,7.88
2023-04-16T19:19:34.160Z,7.89
2023-04-16T19:22:02.301Z,7.92
2023-04-16T19:24:31.885Z,7.88
2023-04-16T19:27:04.587Z,8.04
2023-04-16T19:29:34.117Z,8.03
2023-04-16T19:32:06.494Z,7.93
2023-04-16T19:34:36.768Z,7.77
2023-04-16T19:37:25.119Z,7.71
2023-04-16T19:39:54.942Z,7.63
2023-04-16T19:42:23.629Z,7.77
2023-04-16T19:44:52.933Z,7.70
2023-04-16T19:47:22.594Z,7.69
2023-04-16T19:49:50.738Z,7.84
2023-04-16T19:52:19.719Z,7.65
2023-04-16T19:54:50.585Z,7.64
2023-04-16T19:57:18.656Z,7.76
2023-04-16T19:59:46.929Z,7.69
2023-04-16T20:02:14.998Z,7.57
2023-04-16T20:04:44.837Z,7.50
2023-04-16T20:07:22.520Z,7.60
2023-04-16T20:09:53.726Z,7.60
2023-04-16T20:12:29.777Z,7.46
2023-04-16T20:14:58.746Z,7.51
2023-04-16T20:17:26.842Z,7.53
2023-04-16T20:20:10.744Z,7.29
2023-04-16T20:22:38.794Z,7.46
2023-04-16T20:25:08.968Z,7.44
2023-04-16T20:27:38.003Z,7.56
2023-04-16T20:30:07.335Z,7.46
2023-04-16T20:32:39.790Z,7.29
2023-04-16T20:35:12.958Z,7.50
2023-04-16T20:37:55.747Z,7.46
2023-04-16T20:40:24.261Z,7.41
2023-04-16T20:42:52.354Z,7.50
2023-04-16T20:45:25.380Z,7.39
2023-04-16T20:48:02.405Z,7.41
2023-04-16T20:50:32.863Z,7.46
2023-04-16T20:53:08.790Z,7.43
2023-04-16T20:55:38.165Z,7.38
2023-04-16T20:58:07.437Z,7.43
2023-04-16T21:00:36.693Z,7.48
2023-04-16T21:03:05.282Z,7.44
2023-04-16T21:05:35.111Z,7.39
2023-04-16T21:09:10.775Z,7.32
2023-04-16T21:11:37.327Z,7.15
2023-04-16T21:14:07.023Z,7.28
2023-04-16T21:16:36.376Z,7.24
2023-04-16T21:19:06.039Z,7.36
2023-04-16T21:21:47.455Z,7.27
2023-04-16T21:24:16.747Z,7.30
2023-04-16T21:26:45.896Z,7.28
2023-04-16T21:29:14.445Z,7.20
2023-04-16T21:31:42.551Z,7.30
2023-04-16T21:34:10.936Z,7.27
2023-04-16T21:36:39.988Z,7.29
2023-04-16T21:39:09.593Z,7.27
2023-04-16T21:41:38.742Z,7.29
2023-04-16T21:44:07.992Z,7.27
2023-04-16T21:46:35.944Z,7.29
2023-04-16T21:49:04.381Z,7.25
2023-04-16T21:51:34.297Z,7.31
2023-04-16T21:54:02.627Z,7.22
2023-04-16T21:57:03.679Z,7.39
2023-04-16T21:59:37.511Z,7.27
2023-04-16T22:02:06.476Z,7.31
2023-04-16T22:04:39.636Z,7.34
2023-04-16T22:07:15.188Z,7.23
2023-04-16T22:09:45.678Z,7.31
2023-04-16T22:12:17.100Z,7.37
2023-04-16T22:15:01.876Z,7.29
2023-04-16T22:17:33.449Z,7.32
2023-04-16T22:21:14.723Z,7.15
2023-04-16T22:23:43.185Z,7.38
2023-04-16T22:26:13.328Z,7.41
2023-04-16T22:28:43.934Z,7.28
2023-04-16T22:31:19.358Z,7.18
2023-04-16T22:33:52.101Z,7.22
2023-04-16T22:36:21.989Z,7.14
2023-04-16T22:38:50.168Z,7.31
2023-04-16T22:41:19.269Z,7.34
2023-04-16T22:43:50.087Z,7.48
2023-04-16T22:46:22.367Z,7.39
2023-04-16T22:48:51.970Z,7.42
2023-04-16T22:51:21.526Z,7.51
2023-04-16T22:53:49.523Z,7.35
2023-04-16T22:56:18.570Z,7.37
2023-04-16T22:58:49.384Z,7.39
2023-04-16T23:01:20.807Z,7.42
2023-04-16T23:03:49.316Z,7.45
2023-04-16T23:06:17.484Z,7.37
2023-04-16T23:08:45.502Z,7.41
2023-04-16T23:11:13.560Z,7.43
2023-04-16T23:13:42.827Z,7.37
2023-04-16T23:16:12.481Z,7.41
2023-04-16T23:18:40.605Z,7.39
2023-04-16T23:21:09.538Z,7.41
2023-04-16T23:23:37.955Z,7.43
2023-04-16T23:26:06.405Z,7.45
2023-04-16T23:28:34.450Z,7.45
2023-04-16T23:31:04.113Z,7.39
2023-04-16T23:33:34.777Z,7.29
2023-04-16T23:36:04.246Z,7.44
2023-04-16T23:38:32.419Z,7.51
2023-04-16T23:41:00.599Z,7.51
2023-04-16T23:43:28.724Z,7.53
2023-04-16T23:45:56.889Z,7.51
2023-04-16T23:48:24.927Z,7.43
2023-04-16T23:50:54.553Z,7.41
2023-04-16T23:53:22.610Z,7.39
2023-04-16T23:55:50.898Z,7.44
2023-04-16T23:58:18.901Z,7.41
